sensor_id;sensor_type;location;lat;lon;timestamp;temperature;humidity
40822;DHT22;26542;50.836;5.356;2022-10-13T00:00:55;13.90;99.90
40822;DHT22;26542;50.836;5.356;2022-10-13T00:03:20;13.80;99.90
40822;DHT22;26542;50.836;5.356;2022-10-13T00:05:48;13.80;99.90
40822;DHT22;26542;50.836;5.356;2022-10-13T00:08:17;13.90;99.90
40822;DHT22;26542;50.836;5.356;2022-10-13T00:10:47;13.90;99.90
40822;DHT22;26542;50.836;5.356;2022-10-13T00:13:13;13.90;99.90
40822;DHT22;26542;50.836;5.356;2022-10-13T00:15:41;13.90;99.90
40822;DHT22;26542;50.836;5.356;2022-10-13T00:18:07;13.90;99.90
40822;DHT22;26542;50.836;5.356;2022-10-13T00:20:33;13.90;99.90
40822;DHT22;26542;50.836;5.356;2022-10-13T00:22:59;13.90;99.90
40822;DHT22;26542;50.836;5.356;2022-10-13T00:25:25;13.90;99.90
40822;DHT22;26542;50.836;5.356;2022-10-13T00:27:51;13.90;99.90
40822;DHT22;26542;50.836;5.356;2022-10-13T00:30:17;13.90;99.90
40822;DHT22;26542;50.836;5.356;2022-10-13T00:32:43;13.90;99.90
40822;DHT22;26542;50.836;5.356;2022-10-13T00:35:08;14.00;99.90
40822;DHT22;26542;50.836;5.356;2022-10-13T00:37:34;13.90;99.90
40822;DHT22;26542;50.836;5.356;2022-10-13T00:40:00;13.90;99.90
40822;DHT22;26542;50.836;5.356;2022-10-13T00:42:27;13.80;99.90
40822;DHT22;26542;50.836;5.356;2022-10-13T00:47:40;13.90;99.90
40822;DHT22;26542;50.836;5.356;2022-10-13T00:50:14;14.00;99.90
40822;DHT22;26542;50.836;5.356;2022-10-13T00:52:41;14.00;99.90
40822;DHT22;26542;50.836;5.356;2022-10-13T00:55:09;14.00;99.90
40822;DHT22;26542;50.836;5.356;2022-10-13T00:57:38;14.10;99.90
40822;DHT22;26542;50.836;5.356;2022-10-13T01:00:05;14.00;99.90
40822;DHT22;26542;50.836;5.356;2022-10-13T01:02:34;14.00;99.90
40822;DHT22;26542;50.836;5.356;2022-10-13T01:05:00;14.10;99.90
40822;DHT22;26542;50.836;5.356;2022-10-13T01:07:28;14.10;99.90
40822;DHT22;26542;50.836;5.356;2022-10-13T01:09:54;13.90;99.90
40822;DHT22;26542;50.836;5.356;2022-10-13T01:15:50;14.10;99.90
40822;DHT22;26542;50.836;5.356;2022-10-13T01:18:07;14.00;99.90
40822;DHT22;26542;50.836;5.356;2022-10-13T01:26:32;14.20;99.90
40822;DHT22;26542;50.836;5.356;2022-10-13T01:31:59;14.00;99.90
40822;DHT22;26542;50.836;5.356;2022-10-13T01:34:37;14.00;99.90
40822;DHT22;26542;50.836;5.356;2022-10-13T01:42:34;14.00;99.90
40822;DHT22;26542;50.836;5.356;2022-10-13T01:45:02;14.00;99.90
40822;DHT22;26542;50.836;5.356;2022-10-13T01:47:31;14.00;99.90
40822;DHT22;26542;50.836;5.356;2022-10-13T01:50:06;13.90;99.90
40822;DHT22;26542;50.836;5.356;2022-10-13T01:52:36;13.90;99.90
40822;DHT22;26542;50.836;5.356;2022-10-13T01:55:10;13.90;99.90
40822;DHT22;26542;50.836;5.356;2022-10-13T01:57:41;14.00;99.90
40822;DHT22;26542;50.836;5.356;2022-10-13T02:00:16;14.00;99.90
40822;DHT22;26542;50.836;5.356;2022-10-13T02:03:19;14.10;99.90
40822;DHT22;26542;50.836;5.356;2022-10-13T02:06:20;14.00;99.90
40822;DHT22;26542;50.836;5.356;2022-10-13T02:09:07;14.00;99.90
40822;DHT22;26542;50.836;5.356;2022-10-13T02:11:34;14.10;99.90
40822;DHT22;26542;50.836;5.356;2022-10-13T02:14:14;14.10;99.90
40822;DHT22;26542;50.836;5.356;2022-10-13T02:16:43;14.10;99.90
40822;DHT22;26542;50.836;5.356;2022-10-13T02:19:15;14.00;99.90
40822;DHT22;26542;50.836;5.356;2022-10-13T02:21:41;14.00;99.90
40822;DHT22;26542;50.836;5.356;2022-10-13T02:24:08;14.00;99.90
40822;DHT22;26542;50.836;5.356;2022-10-13T02:26:36;14.00;99.90
40822;DHT22;26542;50.836;5.356;2022-10-13T02:29:10;14.00;99.90
40822;DHT22;26542;50.836;5.356;2022-10-13T02:31:37;14.10;99.90
40822;DHT22;26542;50.836;5.356;2022-10-13T02:34:04;14.00;99.90
40822;DHT22;26542;50.836;5.356;2022-10-13T02:36:30;14.00;99.90
40822;DHT22;26542;50.836;5.356;2022-10-13T02:38:55;14.00;99.90
40822;DHT22;26542;50.836;5.356;2022-10-13T02:41:21;14.20;99.90
40822;DHT22;26542;50.836;5.356;2022-10-13T02:43:47;14.20;99.90
40822;DHT22;26542;50.836;5.356;2022-10-13T02:46:13;14.20;99.90
40822;DHT22;26542;50.836;5.356;2022-10-13T02:48:38;14.20;99.90
40822;DHT22;26542;50.836;5.356;2022-10-13T02:51:05;14.30;99.90
40822;DHT22;26542;50.836;5.356;2022-10-13T02:53:30;14.20;99.90
40822;DHT22;26542;50.836;5.356;2022-10-13T02:55:56;14.20;99.90
40822;DHT22;26542;50.836;5.356;2022-10-13T02:58:22;14.10;99.90
40822;DHT22;26542;50.836;5.356;2022-10-13T03:00:48;14.10;99.90
40822;DHT22;26542;50.836;5.356;2022-10-13T03:03:13;14.20;99.90
40822;DHT22;26542;50.836;5.356;2022-10-13T03:05:41;14.20;99.90
40822;DHT22;26542;50.836;5.356;2022-10-13T03:08:07;14.20;99.90
40822;DHT22;26542;50.836;5.356;2022-10-13T03:10:33;14.10;99.90
40822;DHT22;26542;50.836;5.356;2022-10-13T03:12:59;14.00;99.90
40822;DHT22;26542;50.836;5.356;2022-10-13T03:15:24;14.10;99.90
40822;DHT22;26542;50.836;5.356;2022-10-13T03:17:50;14.00;99.90
40822;DHT22;26542;50.836;5.356;2022-10-13T03:20:16;14.10;99.90
40822;DHT22;26542;50.836;5.356;2022-10-13T03:22:42;14.10;99.90
40822;DHT22;26542;50.836;5.356;2022-10-13T03:25:07;14.10;99.90
40822;DHT22;26542;50.836;5.356;2022-10-13T03:27:34;14.10;99.90
40822;DHT22;26542;50.836;5.356;2022-10-13T03:29:59;14.10;99.90
40822;DHT22;26542;50.836;5.356;2022-10-13T03:32:25;14.00;99.90
40822;DHT22;26542;50.836;5.356;2022-10-13T03:34:54;14.00;99.90
40822;DHT22;26542;50.836;5.356;2022-10-13T03:37:19;14.10;99.90
40822;DHT22;26542;50.836;5.356;2022-10-13T03:39:45;14.10;99.90
40822;DHT22;26542;50.836;5.356;2022-10-13T03:42:11;14.20;99.90
40822;DHT22;26542;50.836;5.356;2022-10-13T03:44:37;14.20;99.90
40822;DHT22;26542;50.836;5.356;2022-10-13T03:47:03;14.20;99.90
40822;DHT22;26542;50.836;5.356;2022-10-13T03:49:29;14.30;99.90
40822;DHT22;26542;50.836;5.356;2022-10-13T03:51:55;14.20;99.90
40822;DHT22;26542;50.836;5.356;2022-10-13T03:54:21;14.20;99.90
40822;DHT22;26542;50.836;5.356;2022-10-13T03:56:47;14.10;99.90
40822;DHT22;26542;50.836;5.356;2022-10-13T03:59:13;14.00;99.90
40822;DHT22;26542;50.836;5.356;2022-10-13T04:01:44;14.00;99.90
40822;DHT22;26542;50.836;5.356;2022-10-13T04:04:10;14.00;99.90
40822;DHT22;26542;50.836;5.356;2022-10-13T04:06:37;13.90;99.90
40822;DHT22;26542;50.836;5.356;2022-10-13T04:09:17;13.90;99.90
40822;DHT22;26542;50.836;5.356;2022-10-13T04:11:43;13.90;99.90
40822;DHT22;26542;50.836;5.356;2022-10-13T04:14:08;13.90;99.90
40822;DHT22;26542;50.836;5.356;2022-10-13T04:16:38;14.00;99.90
40822;DHT22;26542;50.836;5.356;2022-10-13T04:19:04;13.90;99.90
40822;DHT22;26542;50.836;5.356;2022-10-13T04:21:34;13.90;99.90
40822;DHT22;26542;50.836;5.356;2022-10-13T04:24:00;13.90;99.90
40822;DHT22;26542;50.836;5.356;2022-10-13T04:26:29;13.80;99.90
40822;DHT22;26542;50.836;5.356;2022-10-13T04:28:55;13.70;99.90
40822;DHT22;26542;50.836;5.356;2022-10-13T04:31:22;13.80;99.90
40822;DHT22;26542;50.836;5.356;2022-10-13T04:33:48;13.80;99.90
40822;DHT22;26542;50.836;5.356;2022-10-13T04:36:14;13.90;99.90
40822;DHT22;26542;50.836;5.356;2022-10-13T04:38:41;13.90;99.90
40822;DHT22;26542;50.836;5.356;2022-10-13T04:41:08;14.00;99.90
40822;DHT22;26542;50.836;5.356;2022-10-13T04:43:34;14.00;99.90
40822;DHT22;26542;50.836;5.356;2022-10-13T04:46:03;14.00;99.90
40822;DHT22;26542;50.836;5.356;2022-10-13T04:48:29;13.90;99.90
40822;DHT22;26542;50.836;5.356;2022-10-13T04:51:12;14.00;99.90
40822;DHT22;26542;50.836;5.356;2022-10-13T04:53:39;14.00;99.90
40822;DHT22;26542;50.836;5.356;2022-10-13T04:56:07;13.80;99.90
40822;DHT22;26542;50.836;5.356;2022-10-13T04:58:33;13.90;99.90
40822;DHT22;26542;50.836;5.356;2022-10-13T05:00:59;13.90;99.90
40822;DHT22;26542;50.836;5.356;2022-10-13T05:03:25;13.90;99.90
40822;DHT22;26542;50.836;5.356;2022-10-13T05:05:52;14.00;99.90
40822;DHT22;26542;50.836;5.356;2022-10-13T05:08:18;14.00;99.90
40822;DHT22;26542;50.836;5.356;2022-10-13T05:10:55;14.00;99.90
40822;DHT22;26542;50.836;5.356;2022-10-13T05:13:22;14.00;99.90
40822;DHT22;26542;50.836;5.356;2022-10-13T05:15:48;14.10;99.90
40822;DHT22;26542;50.836;5.356;2022-10-13T05:18:13;14.10;99.90
40822;DHT22;26542;50.836;5.356;2022-10-13T05:20:39;14.10;99.90
40822;DHT22;26542;50.836;5.356;2022-10-13T05:23:04;14.10;99.90
40822;DHT22;26542;50.836;5.356;2022-10-13T05:25:30;14.00;99.90
40822;DHT22;26542;50.836;5.356;2022-10-13T05:27:56;14.00;99.90
40822;DHT22;26542;50.836;5.356;2022-10-13T05:30:21;14.00;99.90
40822;DHT22;26542;50.836;5.356;2022-10-13T05:32:47;14.00;99.90
40822;DHT22;26542;50.836;5.356;2022-10-13T05:35:13;14.00;99.90
40822;DHT22;26542;50.836;5.356;2022-10-13T05:37:38;13.90;99.90
40822;DHT22;26542;50.836;5.356;2022-10-13T05:40:04;13.90;99.90
40822;DHT22;26542;50.836;5.356;2022-10-13T05:42:30;13.90;99.90
40822;DHT22;26542;50.836;5.356;2022-10-13T05:44:56;14.10;99.90
40822;DHT22;26542;50.836;5.356;2022-10-13T05:47:22;14.10;99.90
40822;DHT22;26542;50.836;5.356;2022-10-13T05:49:55;13.90;99.90
40822;DHT22;26542;50.836;5.356;2022-10-13T05:52:22;13.90;99.90
40822;DHT22;26542;50.836;5.356;2022-10-13T05:54:52;13.90;99.90
40822;DHT22;26542;50.836;5.356;2022-10-13T05:57:27;13.90;99.90
40822;DHT22;26542;50.836;5.356;2022-10-13T06:00:15;14.00;99.90
40822;DHT22;26542;50.836;5.356;2022-10-13T06:03:18;14.00;99.90
40822;DHT22;26542;50.836;5.356;2022-10-13T06:05:45;14.00;99.90
40822;DHT22;26542;50.836;5.356;2022-10-13T06:08:13;13.90;99.90
40822;DHT22;26542;50.836;5.356;2022-10-13T06:10:40;13.80;99.90
40822;DHT22;26542;50.836;5.356;2022-10-13T06:13:07;14.00;99.90
40822;DHT22;26542;50.836;5.356;2022-10-13T06:15:32;13.90;99.90
40822;DHT22;26542;50.836;5.356;2022-10-13T06:17:58;14.00;99.90
40822;DHT22;26542;50.836;5.356;2022-10-13T06:20:24;14.00;99.90
40822;DHT22;26542;50.836;5.356;2022-10-13T06:22:53;14.00;99.90
40822;DHT22;26542;50.836;5.356;2022-10-13T06:25:19;14.00;99.90
40822;DHT22;26542;50.836;5.356;2022-10-13T06:27:45;14.00;99.90
40822;DHT22;26542;50.836;5.356;2022-10-13T06:30:11;14.10;99.90
40822;DHT22;26542;50.836;5.356;2022-10-13T06:32:36;14.10;99.90
40822;DHT22;26542;50.836;5.356;2022-10-13T06:35:02;14.10;99.90
40822;DHT22;26542;50.836;5.356;2022-10-13T06:37:28;14.00;99.90
40822;DHT22;26542;50.836;5.356;2022-10-13T06:39:54;14.10;99.90
40822;DHT22;26542;50.836;5.356;2022-10-13T06:42:19;14.00;99.90
40822;DHT22;26542;50.836;5.356;2022-10-13T06:44:45;14.10;99.90
40822;DHT22;26542;50.836;5.356;2022-10-13T06:47:11;14.20;99.90
40822;DHT22;26542;50.836;5.356;2022-10-13T06:49:36;14.20;99.90
40822;DHT22;26542;50.836;5.356;2022-10-13T06:52:03;14.20;99.90
40822;DHT22;26542;50.836;5.356;2022-10-13T06:54:29;14.20;99.90
40822;DHT22;26542;50.836;5.356;2022-10-13T06:56:55;14.20;99.90
40822;DHT22;26542;50.836;5.356;2022-10-13T06:59:20;14.30;99.90
40822;DHT22;26542;50.836;5.356;2022-10-13T07:01:47;14.30;99.90
40822;DHT22;26542;50.836;5.356;2022-10-13T07:04:13;14.30;99.90
40822;DHT22;26542;50.836;5.356;2022-10-13T07:06:39;14.40;99.90
40822;DHT22;26542;50.836;5.356;2022-10-13T07:09:05;14.40;99.90
40822;DHT22;26542;50.836;5.356;2022-10-13T07:11:31;14.30;99.90
40822;DHT22;26542;50.836;5.356;2022-10-13T07:13:57;14.30;99.90
40822;DHT22;26542;50.836;5.356;2022-10-13T07:16:23;14.30;99.90
40822;DHT22;26542;50.836;5.356;2022-10-13T07:18:48;14.30;99.90
40822;DHT22;26542;50.836;5.356;2022-10-13T07:21:15;14.40;99.90
40822;DHT22;26542;50.836;5.356;2022-10-13T07:23:43;14.40;99.90
40822;DHT22;26542;50.836;5.356;2022-10-13T07:26:11;14.50;99.90
40822;DHT22;26542;50.836;5.356;2022-10-13T07:28:37;14.50;99.90
40822;DHT22;26542;50.836;5.356;2022-10-13T07:31:14;14.60;99.90
40822;DHT22;26542;50.836;5.356;2022-10-13T07:33:41;14.60;99.90
40822;DHT22;26542;50.836;5.356;2022-10-13T07:36:07;14.50;99.90
40822;DHT22;26542;50.836;5.356;2022-10-13T07:38:34;14.60;99.90
40822;DHT22;26542;50.836;5.356;2022-10-13T07:41:01;14.70;99.90
40822;DHT22;26542;50.836;5.356;2022-10-13T07:43:27;14.70;99.90
40822;DHT22;26542;50.836;5.356;2022-10-13T07:45:53;14.80;99.90
40822;DHT22;26542;50.836;5.356;2022-10-13T07:48:19;14.90;99.90
40822;DHT22;26542;50.836;5.356;2022-10-13T07:50:44;15.00;99.90
40822;DHT22;26542;50.836;5.356;2022-10-13T07:53:10;14.90;99.90
40822;DHT22;26542;50.836;5.356;2022-10-13T07:55:36;14.90;99.90
40822;DHT22;26542;50.836;5.356;2022-10-13T07:58:02;14.90;99.90
40822;DHT22;26542;50.836;5.356;2022-10-13T08:00:28;14.80;99.90
40822;DHT22;26542;50.836;5.356;2022-10-13T08:02:54;14.90;99.90
40822;DHT22;26542;50.836;5.356;2022-10-13T08:05:19;14.90;99.90
40822;DHT22;26542;50.836;5.356;2022-10-13T08:07:48;15.00;99.90
40822;DHT22;26542;50.836;5.356;2022-10-13T08:10:13;15.00;99.90
40822;DHT22;26542;50.836;5.356;2022-10-13T08:12:39;15.00;99.90
40822;DHT22;26542;50.836;5.356;2022-10-13T08:15:05;15.00;99.90
40822;DHT22;26542;50.836;5.356;2022-10-13T08:17:31;15.00;99.90
40822;DHT22;26542;50.836;5.356;2022-10-13T08:19:57;15.00;99.90
40822;DHT22;26542;50.836;5.356;2022-10-13T08:22:23;15.10;99.90
40822;DHT22;26542;50.836;5.356;2022-10-13T08:24:48;15.10;99.90
40822;DHT22;26542;50.836;5.356;2022-10-13T08:27:19;15.20;99.90
40822;DHT22;26542;50.836;5.356;2022-10-13T08:29:46;15.20;99.90
40822;DHT22;26542;50.836;5.356;2022-10-13T08:32:11;15.10;99.90
40822;DHT22;26542;50.836;5.356;2022-10-13T08:34:37;15.10;99.90
40822;DHT22;26542;50.836;5.356;2022-10-13T08:37:03;15.10;99.90
40822;DHT22;26542;50.836;5.356;2022-10-13T08:39:29;15.10;99.90
40822;DHT22;26542;50.836;5.356;2022-10-13T08:41:56;15.20;99.90
40822;DHT22;26542;50.836;5.356;2022-10-13T08:49:54;15.20;99.90
40822;DHT22;26542;50.836;5.356;2022-10-13T08:52:27;15.10;99.90
40822;DHT22;26542;50.836;5.356;2022-10-13T08:54:55;15.20;99.90
40822;DHT22;26542;50.836;5.356;2022-10-13T08:57:22;15.30;99.90
40822;DHT22;26542;50.836;5.356;2022-10-13T08:59:47;15.30;99.90
40822;DHT22;26542;50.836;5.356;2022-10-13T09:02:27;15.30;99.90
40822;DHT22;26542;50.836;5.356;2022-10-13T09:04:54;15.40;99.90
40822;DHT22;26542;50.836;5.356;2022-10-13T09:07:28;15.40;99.90
40822;DHT22;26542;50.836;5.356;2022-10-13T09:09:55;15.40;99.90
40822;DHT22;26542;50.836;5.356;2022-10-13T09:12:22;15.40;99.90
40822;DHT22;26542;50.836;5.356;2022-10-13T09:15:05;15.50;99.90
40822;DHT22;26542;50.836;5.356;2022-10-13T09:17:32;15.40;99.90
40822;DHT22;26542;50.836;5.356;2022-10-13T09:20:21;15.50;99.90
40822;DHT22;26542;50.836;5.356;2022-10-13T09:23:21;15.40;99.90
40822;DHT22;26542;50.836;5.356;2022-10-13T09:25:49;15.30;99.90
40822;DHT22;26542;50.836;5.356;2022-10-13T09:28:17;15.30;99.90
40822;DHT22;26542;50.836;5.356;2022-10-13T09:30:45;15.30;99.90
40822;DHT22;26542;50.836;5.356;2022-10-13T09:40:38;15.40;99.90
40822;DHT22;26542;50.836;5.356;2022-10-13T09:43:30;15.50;99.90
40822;DHT22;26542;50.836;5.356;2022-10-13T09:45:57;15.50;99.90
40822;DHT22;26542;50.836;5.356;2022-10-13T09:48:33;15.40;99.90
40822;DHT22;26542;50.836;5.356;2022-10-13T09:51:00;15.40;99.90
40822;DHT22;26542;50.836;5.356;2022-10-13T09:53:37;15.50;99.90
40822;DHT22;26542;50.836;5.356;2022-10-13T09:58:46;15.40;99.90
40822;DHT22;26542;50.836;5.356;2022-10-13T10:01:22;15.50;99.90
40822;DHT22;26542;50.836;5.356;2022-10-13T10:03:49;15.50;99.90
40822;DHT22;26542;50.836;5.356;2022-10-13T10:06:16;15.50;99.90
40822;DHT22;26542;50.836;5.356;2022-10-13T10:09:18;15.60;99.90
40822;DHT22;26542;50.836;5.356;2022-10-13T10:11:45;15.70;99.90
40822;DHT22;26542;50.836;5.356;2022-10-13T10:16:48;15.80;99.90
40822;DHT22;26542;50.836;5.356;2022-10-13T10:19:27;15.90;99.90
40822;DHT22;26542;50.836;5.356;2022-10-13T10:27:48;16.10;99.90
40822;DHT22;26542;50.836;5.356;2022-10-13T10:30:18;16.20;99.90
40822;DHT22;26542;50.836;5.356;2022-10-13T10:33:02;16.20;99.90
40822;DHT22;26542;50.836;5.356;2022-10-13T10:35:56;16.20;99.90
40822;DHT22;26542;50.836;5.356;2022-10-13T10:46:11;16.20;99.90
40822;DHT22;26542;50.836;5.356;2022-10-13T10:48:39;16.40;99.90
40822;DHT22;26542;50.836;5.356;2022-10-13T10:51:08;16.40;99.90
40822;DHT22;26542;50.836;5.356;2022-10-13T10:53:48;16.40;99.90
40822;DHT22;26542;50.836;5.356;2022-10-13T10:56:29;16.40;99.90
40822;DHT22;26542;50.836;5.356;2022-10-13T11:04:37;16.50;99.90
40822;DHT22;26542;50.836;5.356;2022-10-13T11:07:54;16.60;99.90
40822;DHT22;26542;50.836;5.356;2022-10-13T11:15:12;16.70;99.90
40822;DHT22;26542;50.836;5.356;2022-10-13T11:17:39;16.70;99.90
40822;DHT22;26542;50.836;5.356;2022-10-13T11:25:40;16.90;99.90
40822;DHT22;26542;50.836;5.356;2022-10-13T11:28:43;17.00;99.90
40822;DHT22;26542;50.836;5.356;2022-10-13T11:36:48;17.10;99.90
40822;DHT22;26542;50.836;5.356;2022-10-13T11:42:01;17.40;99.90
40822;DHT22;26542;50.836;5.356;2022-10-13T11:55:37;17.60;99.90
40822;DHT22;26542;50.836;5.356;2022-10-13T11:58:13;17.80;99.90
40822;DHT22;26542;50.836;5.356;2022-10-13T12:03:22;17.90;99.90
40822;DHT22;26542;50.836;5.356;2022-10-13T12:05:48;18.00;99.90
40822;DHT22;26542;50.836;5.356;2022-10-13T12:08:14;18.10;99.90
40822;DHT22;26542;50.836;5.356;2022-10-13T12:10:40;18.00;99.90
40822;DHT22;26542;50.836;5.356;2022-10-13T12:13:28;17.90;99.90
40822;DHT22;26542;50.836;5.356;2022-10-13T12:16:00;18.10;99.90
40822;DHT22;26542;50.836;5.356;2022-10-13T12:18:38;17.90;99.90
40822;DHT22;26542;50.836;5.356;2022-10-13T12:23:42;18.10;99.90
40822;DHT22;26542;50.836;5.356;2022-10-13T12:26:16;18.10;99.90
40822;DHT22;26542;50.836;5.356;2022-10-13T12:28:55;18.00;99.90
40822;DHT22;26542;50.836;5.356;2022-10-13T12:31:42;17.90;99.90
40822;DHT22;26542;50.836;5.356;2022-10-13T12:36:44;17.90;99.90
40822;DHT22;26542;50.836;5.356;2022-10-13T12:39:17;17.90;99.90
40822;DHT22;26542;50.836;5.356;2022-10-13T12:41:45;17.90;99.90
40822;DHT22;26542;50.836;5.356;2022-10-13T12:44:15;17.90;99.90
40822;DHT22;26542;50.836;5.356;2022-10-13T12:46:43;18.00;99.90
40822;DHT22;26542;50.836;5.356;2022-10-13T12:49:27;18.00;99.90
40822;DHT22;26542;50.836;5.356;2022-10-13T12:54:30;18.10;99.90
40822;DHT22;26542;50.836;5.356;2022-10-13T12:57:03;18.00;99.90
40822;DHT22;26542;50.836;5.356;2022-10-13T12:59:30;18.00;99.90
40822;DHT22;26542;50.836;5.356;2022-10-13T13:02:01;18.00;99.90
40822;DHT22;26542;50.836;5.356;2022-10-13T13:07:04;17.90;99.90
40822;DHT22;26542;50.836;5.356;2022-10-13T13:09:34;17.80;99.90
40822;DHT22;26542;50.836;5.356;2022-10-13T13:17:11;17.60;99.90
40822;DHT22;26542;50.836;5.356;2022-10-13T13:19:38;17.50;99.90
40822;DHT22;26542;50.836;5.356;2022-10-13T13:22:05;17.50;99.90
40822;DHT22;26542;50.836;5.356;2022-10-13T13:24:31;17.50;99.90
40822;DHT22;26542;50.836;5.356;2022-10-13T13:26:58;17.30;99.90
40822;DHT22;26542;50.836;5.356;2022-10-13T13:29:26;16.90;99.90
40822;DHT22;26542;50.836;5.356;2022-10-13T13:31:51;16.70;99.90
40822;DHT22;26542;50.836;5.356;2022-10-13T13:34:17;16.60;99.90
40822;DHT22;26542;50.836;5.356;2022-10-13T13:36:43;16.60;99.90
40822;DHT22;26542;50.836;5.356;2022-10-13T13:39:15;16.60;99.90
40822;DHT22;26542;50.836;5.356;2022-10-13T13:41:42;16.60;99.90
40822;DHT22;26542;50.836;5.356;2022-10-13T13:44:08;16.60;99.90
40822;DHT22;26542;50.836;5.356;2022-10-13T13:46:34;16.60;99.90
40822;DHT22;26542;50.836;5.356;2022-10-13T13:49:01;16.70;99.90
40822;DHT22;26542;50.836;5.356;2022-10-13T13:51:28;16.70;99.90
40822;DHT22;26542;50.836;5.356;2022-10-13T13:53:54;16.80;99.90
40822;DHT22;26542;50.836;5.356;2022-10-13T13:56:20;16.80;99.90
40822;DHT22;26542;50.836;5.356;2022-10-13T13:58:46;16.90;99.90
40822;DHT22;26542;50.836;5.356;2022-10-13T14:01:12;16.90;99.90
40822;DHT22;26542;50.836;5.356;2022-10-13T14:03:39;16.80;99.90
40822;DHT22;26542;50.836;5.356;2022-10-13T14:06:05;16.90;99.90
40822;DHT22;26542;50.836;5.356;2022-10-13T14:08:31;17.00;99.90
40822;DHT22;26542;50.836;5.356;2022-10-13T14:10:57;17.00;99.90
40822;DHT22;26542;50.836;5.356;2022-10-13T14:13:23;17.10;99.90
40822;DHT22;26542;50.836;5.356;2022-10-13T14:15:56;17.10;99.90
40822;DHT22;26542;50.836;5.356;2022-10-13T14:18:23;17.10;99.90
40822;DHT22;26542;50.836;5.356;2022-10-13T14:20:48;17.10;99.90
40822;DHT22;26542;50.836;5.356;2022-10-13T14:23:14;17.10;99.90
40822;DHT22;26542;50.836;5.356;2022-10-13T14:25:39;17.00;99.90
40822;DHT22;26542;50.836;5.356;2022-10-13T14:28:05;17.00;99.90
40822;DHT22;26542;50.836;5.356;2022-10-13T14:30:31;17.00;99.90
40822;DHT22;26542;50.836;5.356;2022-10-13T14:32:57;17.00;99.90
40822;DHT22;26542;50.836;5.356;2022-10-13T14:35:22;17.00;99.90
40822;DHT22;26542;50.836;5.356;2022-10-13T14:37:49;17.00;99.90
40822;DHT22;26542;50.836;5.356;2022-10-13T14:40:14;17.10;99.90
40822;DHT22;26542;50.836;5.356;2022-10-13T14:42:40;17.10;99.90
40822;DHT22;26542;50.836;5.356;2022-10-13T14:45:07;17.00;99.90
40822;DHT22;26542;50.836;5.356;2022-10-13T14:47:33;16.90;99.90
40822;DHT22;26542;50.836;5.356;2022-10-13T14:49:59;17.00;99.90
40822;DHT22;26542;50.836;5.356;2022-10-13T14:52:28;17.00;99.90
40822;DHT22;26542;50.836;5.356;2022-10-13T14:54:53;17.00;99.90
40822;DHT22;26542;50.836;5.356;2022-10-13T14:57:19;17.00;99.90
40822;DHT22;26542;50.836;5.356;2022-10-13T14:59:45;17.10;99.90
40822;DHT22;26542;50.836;5.356;2022-10-13T15:02:11;17.00;99.90
40822;DHT22;26542;50.836;5.356;2022-10-13T15:04:38;16.90;99.90
40822;DHT22;26542;50.836;5.356;2022-10-13T15:07:04;16.90;99.90
40822;DHT22;26542;50.836;5.356;2022-10-13T15:09:30;16.80;99.90
40822;DHT22;26542;50.836;5.356;2022-10-13T15:11:56;16.80;99.90
40822;DHT22;26542;50.836;5.356;2022-10-13T15:14:22;16.90;99.90
40822;DHT22;26542;50.836;5.356;2022-10-13T15:16:47;16.90;99.90
40822;DHT22;26542;50.836;5.356;2022-10-13T15:19:13;16.80;99.90
40822;DHT22;26542;50.836;5.356;2022-10-13T15:21:39;16.70;99.90
40822;DHT22;26542;50.836;5.356;2022-10-13T15:24:05;16.60;99.90
40822;DHT22;26542;50.836;5.356;2022-10-13T15:26:31;16.40;99.90
40822;DHT22;26542;50.836;5.356;2022-10-13T15:28:58;16.30;99.90
40822;DHT22;26542;50.836;5.356;2022-10-13T15:31:23;16.30;99.90
40822;DHT22;26542;50.836;5.356;2022-10-13T15:33:51;16.30;99.90
40822;DHT22;26542;50.836;5.356;2022-10-13T15:36:18;16.30;99.90
40822;DHT22;26542;50.836;5.356;2022-10-13T15:38:44;16.30;99.90
40822;DHT22;26542;50.836;5.356;2022-10-13T15:41:11;16.20;99.90
40822;DHT22;26542;50.836;5.356;2022-10-13T15:43:37;16.20;99.90
40822;DHT22;26542;50.836;5.356;2022-10-13T15:48:16;16.20;99.90
40822;DHT22;26542;50.836;5.356;2022-10-13T15:50:44;16.20;99.90
40822;DHT22;26542;50.836;5.356;2022-10-13T15:53:12;16.20;99.90
40822;DHT22;26542;50.836;5.356;2022-10-13T15:55:41;16.10;99.90
40822;DHT22;26542;50.836;5.356;2022-10-13T15:58:07;16.10;99.90
40822;DHT22;26542;50.836;5.356;2022-10-13T16:00:33;15.90;99.90
40822;DHT22;26542;50.836;5.356;2022-10-13T16:02:59;15.70;99.90
40822;DHT22;26542;50.836;5.356;2022-10-13T16:05:24;15.60;99.90
40822;DHT22;26542;50.836;5.356;2022-10-13T16:07:50;15.50;99.90
40822;DHT22;26542;50.836;5.356;2022-10-13T16:10:17;15.30;99.90
40822;DHT22;26542;50.836;5.356;2022-10-13T16:12:42;15.30;99.90
40822;DHT22;26542;50.836;5.356;2022-10-13T16:15:09;15.40;99.90
40822;DHT22;26542;50.836;5.356;2022-10-13T16:17:36;15.40;99.90
40822;DHT22;26542;50.836;5.356;2022-10-13T16:20:05;15.30;99.90
40822;DHT22;26542;50.836;5.356;2022-10-13T16:22:31;15.30;99.90
40822;DHT22;26542;50.836;5.356;2022-10-13T16:24:56;15.20;99.90
40822;DHT22;26542;50.836;5.356;2022-10-13T16:27:23;15.10;99.90
40822;DHT22;26542;50.836;5.356;2022-10-13T16:29:49;15.00;99.90
40822;DHT22;26542;50.836;5.356;2022-10-13T16:32:14;14.90;99.90
40822;DHT22;26542;50.836;5.356;2022-10-13T16:34:45;15.00;99.90
40822;DHT22;26542;50.836;5.356;2022-10-13T16:37:10;15.00;99.90
40822;DHT22;26542;50.836;5.356;2022-10-13T16:39:36;15.10;99.90
40822;DHT22;26542;50.836;5.356;2022-10-13T16:42:02;15.10;99.90
40822;DHT22;26542;50.836;5.356;2022-10-13T16:44:27;15.20;99.90
40822;DHT22;26542;50.836;5.356;2022-10-13T16:46:53;15.20;99.90
40822;DHT22;26542;50.836;5.356;2022-10-13T16:49:21;15.20;99.90
40822;DHT22;26542;50.836;5.356;2022-10-13T16:51:46;15.20;99.90
40822;DHT22;26542;50.836;5.356;2022-10-13T16:54:15;15.20;99.90
40822;DHT22;26542;50.836;5.356;2022-10-13T16:56:40;15.20;99.90
40822;DHT22;26542;50.836;5.356;2022-10-13T16:59:06;15.20;99.90
40822;DHT22;26542;50.836;5.356;2022-10-13T17:01:33;15.10;99.90
40822;DHT22;26542;50.836;5.356;2022-10-13T17:04:00;15.20;99.90
40822;DHT22;26542;50.836;5.356;2022-10-13T17:06:29;15.00;99.90
40822;DHT22;26542;50.836;5.356;2022-10-13T17:08:59;15.00;99.90
40822;DHT22;26542;50.836;5.356;2022-10-13T17:11:29;15.00;99.90
40822;DHT22;26542;50.836;5.356;2022-10-13T17:13:56;15.00;99.90
40822;DHT22;26542;50.836;5.356;2022-10-13T17:16:25;15.00;99.90
40822;DHT22;26542;50.836;5.356;2022-10-13T17:18:51;15.00;99.90
40822;DHT22;26542;50.836;5.356;2022-10-13T17:21:17;14.90;99.90
40822;DHT22;26542;50.836;5.356;2022-10-13T17:23:48;15.00;99.90
40822;DHT22;26542;50.836;5.356;2022-10-13T17:26:16;14.90;99.90